sensor_id;sensor_type;location;lat;lon;timestamp;pressure;altitude;pressure_sealevel;temperature;humidity
67430;BME280;54298;52.076;5.264;2023-08-06T00:00:00;100340.0;;;16.5;92.41
67430;BME280;54298;52.076;5.264;2023-08-06T00:01:37;100349.0;;;16.52;92.52
67430;BME280;54298;52.076;5.264;2023-08-06T00:03:13;100349.0;;;16.43;92.89
67430;BME280;54298;52.076;5.264;2023-08-06T00:06:25;100347.0;;;16.41;93.14
67430;BME280;54298;52.076;5.264;2023-08-06T00:08:01;100349.0;;;16.36;93.32
67430;BME280;54298;52.076;5.264;2023-08-06T00:09:37;100350.0;;;16.36;93.43
67430;BME280;54298;52.076;5.264;2023-08-06T00:11:13;100346.0;;;16.37;93.65
67430;BME280;54298;52.076;5.264;2023-08-06T00:14:26;100350.0;;;16.43;93.57
67430;BME280;54298;52.076;5.264;2023-08-06T00:16:09;100345.0;;;16.45;93.59
67430;BME280;54298;52.076;5.264;2023-08-06T00:17:46;100350.0;;;16.32;94.09
67430;BME280;54298;52.076;5.264;2023-08-06T00:20:59;100346.0;;;16.39;94.04
67430;BME280;54298;52.076;5.264;2023-08-06T00:22:37;100348.0;;;16.32;93.91
67430;BME280;54298;52.076;5.264;2023-08-06T00:24:13;100348.0;;;16.4;94.04
67430;BME280;54298;52.076;5.264;2023-08-06T00:25:49;100344.0;;;16.5;93.64
67430;BME280;54298;52.076;5.264;2023-08-06T00:29:03;100343.0;;;16.43;93.53
67430;BME280;54298;52.076;5.264;2023-08-06T00:30:40;100344.0;;;16.34;94.0
67430;BME280;54298;52.076;5.264;2023-08-06T00:32:16;100344.0;;;16.52;92.85
67430;BME280;54298;52.076;5.264;2023-08-06T00:35:29;100344.0;;;16.43;93.38
67430;BME280;54298;52.076;5.264;2023-08-06T00:37:06;100347.0;;;16.57;92.98
67430;BME280;54298;52.076;5.264;2023-08-06T00:38:43;100341.0;;;16.54;93.03
67430;BME280;54298;52.076;5.264;2023-08-06T00:41:56;100338.0;;;16.59;92.85
67430;BME280;54298;52.076;5.264;2023-08-06T00:43:34;100342.0;;;16.45;93.64
67430;BME280;54298;52.076;5.264;2023-08-06T00:45:11;100341.0;;;16.45;94.14
67430;BME280;54298;52.076;5.264;2023-08-06T00:46:47;100341.0;;;16.47;93.7
67430;BME280;54298;52.076;5.264;2023-08-06T00:50:00;100342.0;;;16.54;93.63
67430;BME280;54298;52.076;5.264;2023-08-06T00:51:37;100345.0;;;16.59;93.05
67430;BME280;54298;52.076;5.264;2023-08-06T00:53:14;100342.0;;;16.52;93.14
67430;BME280;54298;52.076;5.264;2023-08-06T00:56:28;100341.0;;;16.48;93.35
67430;BME280;54298;52.076;5.264;2023-08-06T00:58:05;100343.0;;;16.43;93.86
67430;BME280;54298;52.076;5.264;2023-08-06T00:59:41;100340.0;;;16.36;94.08
67430;BME280;54298;52.076;5.264;2023-08-06T01:02:55;100342.0;;;16.31;94.44
67430;BME280;54298;52.076;5.264;2023-08-06T01:04:32;100340.0;;;16.29;94.35
67430;BME280;54298;52.076;5.264;2023-08-06T01:06:09;100338.0;;;16.36;94.34
67430;BME280;54298;52.076;5.264;2023-08-06T01:07:51;100335.0;;;16.43;93.81
67430;BME280;54298;52.076;5.264;2023-08-06T01:11:37;100335.0;;;16.27;94.85
67430;BME280;54298;52.076;5.264;2023-08-06T01:13:19;100332.0;;;16.43;94.38
67430;BME280;54298;52.076;5.264;2023-08-06T01:15:11;100327.0;;;16.43;93.83
67430;BME280;54298;52.076;5.264;2023-08-06T01:16:54;100330.0;;;16.45;94.06
67430;BME280;54298;52.076;5.264;2023-08-06T01:18:31;100327.0;;;16.43;93.93
67430;BME280;54298;52.076;5.264;2023-08-06T01:21:44;100322.0;;;16.45;93.96
67430;BME280;54298;52.076;5.264;2023-08-06T01:23:20;100324.0;;;16.48;93.84
67430;BME280;54298;52.076;5.264;2023-08-06T01:24:57;100323.0;;;16.45;93.74
67430;BME280;54298;52.076;5.264;2023-08-06T01:26:39;100325.0;;;16.5;93.82
67430;BME280;54298;52.076;5.264;2023-08-06T01:30:12;100327.0;;;16.52;93.49
67430;BME280;54298;52.076;5.264;2023-08-06T01:31:59;100324.0;;;16.48;93.48
67430;BME280;54298;52.076;5.264;2023-08-06T01:33:43;100328.0;;;16.59;92.85
67430;BME280;54298;52.076;5.264;2023-08-06T01:35:21;100330.0;;;16.5;92.99
67430;BME280;54298;52.076;5.264;2023-08-06T01:36:59;100326.0;;;16.54;93.11
67430;BME280;54298;52.076;5.264;2023-08-06T01:40:14;100326.0;;;16.52;93.1
67430;BME280;54298;52.076;5.264;2023-08-06T01:41:50;100323.0;;;16.52;93.13
67430;BME280;54298;52.076;5.264;2023-08-06T01:43:26;100328.0;;;16.43;93.49
67430;BME280;54298;52.076;5.264;2023-08-06T01:46:39;100326.0;;;16.36;94.09
67430;BME280;54298;52.076;5.264;2023-08-06T01:48:17;100330.0;;;16.36;94.37
67430;BME280;54298;52.076;5.264;2023-08-06T01:49:53;100334.0;;;16.34;94.64
67430;BME280;54298;52.076;5.264;2023-08-06T01:53:05;100332.0;;;16.47;94.02
67430;BME280;54298;52.076;5.264;2023-08-06T01:54:41;100332.0;;;16.48;94.04
67430;BME280;54298;52.076;5.264;2023-08-06T01:56:17;100330.0;;;16.47;93.8
67430;BME280;54298;52.076;5.264;2023-08-06T01:57:53;100331.0;;;16.43;94.08
67430;BME280;54298;52.076;5.264;2023-08-06T02:01:06;100332.0;;;16.38;94.28
67430;BME280;54298;52.076;5.264;2023-08-06T02:02:42;100333.0;;;16.39;94.19
67430;BME280;54298;52.076;5.264;2023-08-06T02:04:18;100335.0;;;16.57;93.15
67430;BME280;54298;52.076;5.264;2023-08-06T02:07:30;100339.0;;;16.39;94.11
67430;BME280;54298;52.076;5.264;2023-08-06T02:09:06;100340.0;;;16.45;94.14
67430;BME280;54298;52.076;5.264;2023-08-06T02:10:42;100339.0;;;16.32;94.66
67430;BME280;54298;52.076;5.264;2023-08-06T02:13:54;100340.0;;;16.5;93.68
67430;BME280;54298;52.076;5.264;2023-08-06T02:15:31;100342.0;;;16.47;93.61
67430;BME280;54298;52.076;5.264;2023-08-06T02:17:07;100341.0;;;16.43;93.57
67430;BME280;54298;52.076;5.264;2023-08-06T02:20:19;100341.0;;;16.45;93.69
67430;BME280;54298;52.076;5.264;2023-08-06T02:21:55;100340.0;;;16.47;93.71
67430;BME280;54298;52.076;5.264;2023-08-06T02:23:32;100339.0;;;16.57;93.33
67430;BME280;54298;52.076;5.264;2023-08-06T02:25:08;100335.0;;;16.62;93.13
67430;BME280;54298;52.076;5.264;2023-08-06T02:28:22;100338.0;;;16.61;92.83
67430;BME280;54298;52.076;5.264;2023-08-06T02:29:58;100335.0;;;16.48;93.62
67430;BME280;54298;52.076;5.264;2023-08-06T02:31:35;100339.0;;;16.54;93.57
67430;BME280;54298;52.076;5.264;2023-08-06T02:34:47;100330.0;;;16.59;93.6
67430;BME280;54298;52.076;5.264;2023-08-06T02:36:23;100335.0;;;16.47;93.99
67430;BME280;54298;52.076;5.264;2023-08-06T02:37:59;100336.0;;;16.52;94.33
67430;BME280;54298;52.076;5.264;2023-08-06T02:41:12;100333.0;;;16.65;93.46
67430;BME280;54298;52.076;5.264;2023-08-06T02:42:48;100334.0;;;16.68;93.28
67430;BME280;54298;52.076;5.264;2023-08-06T02:44:27;100333.0;;;16.63;92.98
67430;BME280;54298;52.076;5.264;2023-08-06T02:46:03;100332.0;;;16.75;92.55
67430;BME280;54298;52.076;5.264;2023-08-06T02:49:16;100335.0;;;16.72;92.76
67430;BME280;54298;52.076;5.264;2023-08-06T02:50:52;100337.0;;;16.57;93.09
67430;BME280;54298;52.076;5.264;2023-08-06T02:52:32;100332.0;;;16.59;93.51
67430;BME280;54298;52.076;5.264;2023-08-06T02:55:45;100330.0;;;16.46;94.11
67430;BME280;54298;52.076;5.264;2023-08-06T02:57:22;100330.0;;;16.5;93.53
67430;BME280;54298;52.076;5.264;2023-08-06T02:59:00;100327.0;;;16.54;93.13
67430;BME280;54298;52.076;5.264;2023-08-06T03:02:12;100326.0;;;16.5;93.42
67430;BME280;54298;52.076;5.264;2023-08-06T03:03:48;100319.0;;;16.59;93.1
67430;BME280;54298;52.076;5.264;2023-08-06T03:05:24;100317.0;;;16.53;93.21
67430;BME280;54298;52.076;5.264;2023-08-06T03:07:00;100319.0;;;16.5;93.27
67430;BME280;54298;52.076;5.264;2023-08-06T03:10:12;100318.0;;;16.56;93.28
67430;BME280;54298;52.076;5.264;2023-08-06T03:11:48;100320.0;;;16.65;92.78
67430;BME280;54298;52.076;5.264;2023-08-06T03:13:25;100322.0;;;16.63;92.63
67430;BME280;54298;52.076;5.264;2023-08-06T03:16:39;100321.0;;;16.65;92.62
67430;BME280;54298;52.076;5.264;2023-08-06T03:18:16;100322.0;;;16.66;92.68
67430;BME280;54298;52.076;5.264;2023-08-06T03:19:52;100322.0;;;16.65;92.59
67430;BME280;54298;52.076;5.264;2023-08-06T03:23:04;100321.0;;;16.61;93.0
67430;BME280;54298;52.076;5.264;2023-08-06T03:24:40;100319.0;;;16.7;92.71
67430;BME280;54298;52.076;5.264;2023-08-06T03:26:16;100319.0;;;16.64;92.8
67430;BME280;54298;52.076;5.264;2023-08-06T03:27:52;100323.0;;;16.59;93.26
67430;BME280;54298;52.076;5.264;2023-08-06T03:31:06;100323.0;;;16.45;93.95
67430;BME280;54298;52.076;5.264;2023-08-06T03:32:42;100322.0;;;16.5;93.79
67430;BME280;54298;52.076;5.264;2023-08-06T03:34:18;100326.0;;;16.46;93.89
67430;BME280;54298;52.076;5.264;2023-08-06T03:37:31;100322.0;;;16.5;93.69
67430;BME280;54298;52.076;5.264;2023-08-06T03:39:07;100319.0;;;16.54;93.33
67430;BME280;54298;52.076;5.264;2023-08-06T03:40:43;100324.0;;;16.47;93.9
67430;BME280;54298;52.076;5.264;2023-08-06T03:43:56;100320.0;;;16.43;94.48
67430;BME280;54298;52.076;5.264;2023-08-06T03:45:32;100315.0;;;16.34;94.98
67430;BME280;54298;52.076;5.264;2023-08-06T03:47:08;100321.0;;;16.36;94.76
67430;BME280;54298;52.076;5.264;2023-08-06T03:48:44;100317.0;;;16.34;94.55
67430;BME280;54298;52.076;5.264;2023-08-06T03:51:56;100321.0;;;16.25;95.36
67430;BME280;54298;52.076;5.264;2023-08-06T03:53:32;100321.0;;;16.16;96.27
67430;BME280;54298;52.076;5.264;2023-08-06T03:55:08;100323.0;;;16.31;95.24
67430;BME280;54298;52.076;5.264;2023-08-06T03:58:22;100324.0;;;16.23;95.13
67430;BME280;54298;52.076;5.264;2023-08-06T03:59:58;100324.0;;;16.11;96.02
67430;BME280;54298;52.076;5.264;2023-08-06T04:01:34;100324.0;;;16.11;96.3
67430;BME280;54298;52.076;5.264;2023-08-06T04:04:46;100324.0;;;16.15;96.25
67430;BME280;54298;52.076;5.264;2023-08-06T04:06:23;100328.0;;;16.2;95.73
67430;BME280;54298;52.076;5.264;2023-08-06T04:07:59;100321.0;;;16.09;96.28
67430;BME280;54298;52.076;5.264;2023-08-06T04:11:30;100320.0;;;16.18;95.77
67430;BME280;54298;52.076;5.264;2023-08-06T04:13:07;100325.0;;;16.09;96.69
67430;BME280;54298;52.076;5.264;2023-08-06T04:14:43;100327.0;;;16.18;96.27
67430;BME280;54298;52.076;5.264;2023-08-06T04:16:20;100330.0;;;16.2;96.57
67430;BME280;54298;52.076;5.264;2023-08-06T04:19:33;100328.0;;;16.2;96.24
67430;BME280;54298;52.076;5.264;2023-08-06T04:21:09;100330.0;;;16.21;96.17
67430;BME280;54298;52.076;5.264;2023-08-06T04:22:45;100330.0;;;16.21;96.1
67430;BME280;54298;52.076;5.264;2023-08-06T04:24:22;100334.0;;;16.28;96.01
67430;BME280;54298;52.076;5.264;2023-08-06T04:27:35;100336.0;;;16.34;95.88
67430;BME280;54298;52.076;5.264;2023-08-06T04:29:11;100337.0;;;16.31;95.83
67430;BME280;54298;52.076;5.264;2023-08-06T04:30:48;100337.0;;;16.41;95.66
67430;BME280;54298;52.076;5.264;2023-08-06T04:34:01;100339.0;;;16.34;95.75
67430;BME280;54298;52.076;5.264;2023-08-06T04:35:37;100341.0;;;16.39;95.67
67430;BME280;54298;52.076;5.264;2023-08-06T04:37:13;100340.0;;;16.41;95.44
67430;BME280;54298;52.076;5.264;2023-08-06T04:40:26;100342.0;;;16.41;95.52
67430;BME280;54298;52.076;5.264;2023-08-06T04:42:02;100347.0;;;16.5;95.08
67430;BME280;54298;52.076;5.264;2023-08-06T04:43:39;100348.0;;;16.52;94.84
67430;BME280;54298;52.076;5.264;2023-08-06T04:45:15;100351.0;;;16.61;94.56
67430;BME280;54298;52.076;5.264;2023-08-06T04:48:27;100351.0;;;16.45;95.44
67430;BME280;54298;52.076;5.264;2023-08-06T04:50:04;100352.0;;;16.48;94.68
67430;BME280;54298;52.076;5.264;2023-08-06T04:51:40;100355.0;;;16.48;94.75
67430;BME280;54298;52.076;5.264;2023-08-06T04:54:55;100357.0;;;16.47;94.81
67430;BME280;54298;52.076;5.264;2023-08-06T04:56:31;100355.0;;;16.43;94.92
67430;BME280;54298;52.076;5.264;2023-08-06T04:58:09;100355.0;;;16.38;95.14
67430;BME280;54298;52.076;5.264;2023-08-06T05:01:22;100353.0;;;16.45;95.15
67430;BME280;54298;52.076;5.264;2023-08-06T05:02:59;100355.0;;;16.53;94.98
67430;BME280;54298;52.076;5.264;2023-08-06T05:04:35;100356.0;;;16.52;94.38
67430;BME280;54298;52.076;5.264;2023-08-06T05:06:11;100355.0;;;16.54;94.42
67430;BME280;54298;52.076;5.264;2023-08-06T05:09:26;100359.0;;;16.61;93.88
67430;BME280;54298;52.076;5.264;2023-08-06T05:11:02;100356.0;;;16.7;93.61
67430;BME280;54298;52.076;5.264;2023-08-06T05:12:38;100363.0;;;16.68;93.64
67430;BME280;54298;52.076;5.264;2023-08-06T05:15:50;100362.0;;;16.57;93.89
67430;BME280;54298;52.076;5.264;2023-08-06T05:17:30;100369.0;;;16.59;93.9
67430;BME280;54298;52.076;5.264;2023-08-06T05:19:05;100373.0;;;16.62;93.78
67430;BME280;54298;52.076;5.264;2023-08-06T05:22:19;100377.0;;;16.61;94.06
67430;BME280;54298;52.076;5.264;2023-08-06T05:23:55;100375.0;;;16.54;94.26
67430;BME280;54298;52.076;5.264;2023-08-06T05:25:34;100380.0;;;16.54;94.08
67430;BME280;54298;52.076;5.264;2023-08-06T05:27:10;100382.0;;;16.5;94.15
67430;BME280;54298;52.076;5.264;2023-08-06T05:30:23;100387.0;;;16.62;93.79
67430;BME280;54298;52.076;5.264;2023-08-06T05:32:00;100390.0;;;16.61;93.93
67430;BME280;54298;52.076;5.264;2023-08-06T05:33:37;100392.0;;;16.55;93.92
67430;BME280;54298;52.076;5.264;2023-08-06T05:36:51;100394.0;;;16.5;93.69
67430;BME280;54298;52.076;5.264;2023-08-06T05:38:27;100398.0;;;16.45;94.29
67430;BME280;54298;52.076;5.264;2023-08-06T05:40:06;100401.0;;;16.5;94.01
67430;BME280;54298;52.076;5.264;2023-08-06T05:41:42;100398.0;;;16.52;94.12
67430;BME280;54298;52.076;5.264;2023-08-06T05:44:56;100405.0;;;16.38;94.94
67430;BME280;54298;52.076;5.264;2023-08-06T05:46:32;100407.0;;;16.5;94.76
67430;BME280;54298;52.076;5.264;2023-08-06T05:48:08;100411.0;;;16.47;94.49
67430;BME280;54298;52.076;5.264;2023-08-06T05:51:21;100413.0;;;16.52;93.69
67430;BME280;54298;52.076;5.264;2023-08-06T05:52:58;100416.0;;;16.5;93.84
67430;BME280;54298;52.076;5.264;2023-08-06T05:54:34;100416.0;;;16.52;94.08
67430;BME280;54298;52.076;5.264;2023-08-06T05:57:47;100418.0;;;16.43;94.5
67430;BME280;54298;52.076;5.264;2023-08-06T05:59:24;100423.0;;;16.52;94.59
67430;BME280;54298;52.076;5.264;2023-08-06T06:01:00;100425.0;;;16.48;94.25
67430;BME280;54298;52.076;5.264;2023-08-06T06:02:37;100427.0;;;16.4;94.91
67430;BME280;54298;52.076;5.264;2023-08-06T06:05:50;100430.0;;;16.4;95.09
67430;BME280;54298;52.076;5.264;2023-08-06T06:07:26;100433.0;;;16.48;94.58
67430;BME280;54298;52.076;5.264;2023-08-06T06:09:02;100436.0;;;16.56;94.12
67430;BME280;54298;52.076;5.264;2023-08-06T06:12:15;100435.0;;;16.56;94.17
67430;BME280;54298;52.076;5.264;2023-08-06T06:13:52;100434.0;;;16.47;94.18
67430;BME280;54298;52.076;5.264;2023-08-06T06:15:28;100441.0;;;16.52;93.88
67430;BME280;54298;52.076;5.264;2023-08-06T06:18:41;100439.0;;;16.61;93.77
67430;BME280;54298;52.076;5.264;2023-08-06T06:20:17;100444.0;;;16.57;94.13
67430;BME280;54298;52.076;5.264;2023-08-06T06:21:54;100443.0;;;16.48;94.62
67430;BME280;54298;52.076;5.264;2023-08-06T06:23:31;100445.0;;;16.5;94.07
67430;BME280;54298;52.076;5.264;2023-08-06T06:26:44;100448.0;;;16.55;94.45
67430;BME280;54298;52.076;5.264;2023-08-06T06:28:21;100449.0;;;16.32;95.14
67430;BME280;54298;52.076;5.264;2023-08-06T06:29:58;100450.0;;;16.38;94.91
67430;BME280;54298;52.076;5.264;2023-08-06T06:33:11;100455.0;;;16.55;94.63
67430;BME280;54298;52.076;5.264;2023-08-06T06:34:49;100461.0;;;16.56;94.39
67430;BME280;54298;52.076;5.264;2023-08-06T06:36:26;100462.0;;;16.63;94.15
67430;BME280;54298;52.076;5.264;2023-08-06T06:39:39;100463.0;;;16.22;95.78
67430;BME280;54298;52.076;5.264;2023-08-06T06:41:15;100463.0;;;16.46;95.47
67430;BME280;54298;52.076;5.264;2023-08-06T06:42:52;100465.0;;;16.56;94.68
67430;BME280;54298;52.076;5.264;2023-08-06T06:44:29;100465.0;;;16.57;94.52
67430;BME280;54298;52.076;5.264;2023-08-06T06:47:43;100469.0;;;16.59;94.37
67430;BME280;54298;52.076;5.264;2023-08-06T06:49:19;100466.0;;;16.63;94.1
67430;BME280;54298;52.076;5.264;2023-08-06T06:50:55;100470.0;;;16.68;94.08
67430;BME280;54298;52.076;5.264;2023-08-06T06:54:08;100467.0;;;16.25;95.03
67430;BME280;54298;52.076;5.264;2023-08-06T06:55:45;100468.0;;;16.43;93.89
67430;BME280;54298;52.076;5.264;2023-08-06T06:57:21;100470.0;;;16.38;94.41
67430;BME280;54298;52.076;5.264;2023-08-06T07:00:35;100466.0;;;16.27;94.58
67430;BME280;54298;52.076;5.264;2023-08-06T07:02:12;100469.0;;;16.25;95.18
67430;BME280;54298;52.076;5.264;2023-08-06T07:03:48;100469.0;;;16.25;95.42
67430;BME280;54298;52.076;5.264;2023-08-06T07:05:24;100470.0;;;16.34;95.25
67430;BME280;54298;52.076;5.264;2023-08-06T07:08:36;100466.0;;;16.18;95.4
67430;BME280;54298;52.076;5.264;2023-08-06T07:10:13;100469.0;;;16.37;94.76
67430;BME280;54298;52.076;5.264;2023-08-06T07:11:49;100472.0;;;16.27;94.73
67430;BME280;54298;52.076;5.264;2023-08-06T07:15:03;100474.0;;;16.11;95.03
67430;BME280;54298;52.076;5.264;2023-08-06T07:18:17;100486.0;;;15.95;95.84
67430;BME280;54298;52.076;5.264;2023-08-06T07:21:30;100482.0;;;15.83;95.94
67430;BME280;54298;52.076;5.264;2023-08-06T07:23:07;100485.0;;;15.83;95.69
67430;BME280;54298;52.076;5.264;2023-08-06T07:24:43;100488.0;;;15.94;95.12
67430;BME280;54298;52.076;5.264;2023-08-06T07:26:19;100493.0;;;15.79;95.66
67430;BME280;54298;52.076;5.264;2023-08-06T07:29:32;100495.0;;;15.94;95.56
67430;BME280;54298;52.076;5.264;2023-08-06T07:31:10;100495.0;;;15.79;96.14
67430;BME280;54298;52.076;5.264;2023-08-06T07:32:47;100499.0;;;15.96;95.46
67430;BME280;54298;52.076;5.264;2023-08-06T07:35:59;100493.0;;;15.8;96.33
67430;BME280;54298;52.076;5.264;2023-08-06T07:37:35;100496.0;;;15.92;95.7
67430;BME280;54298;52.076;5.264;2023-08-06T07:39:11;100495.0;;;15.7;96.71
67430;BME280;54298;52.076;5.264;2023-08-06T07:42:24;100498.0;;;15.79;96.33
67430;BME280;54298;52.076;5.264;2023-08-06T07:44:01;100495.0;;;15.82;96.17
67430;BME280;54298;52.076;5.264;2023-08-06T07:45:37;100501.0;;;15.73;96.11
67430;BME280;54298;52.076;5.264;2023-08-06T07:47:14;100506.0;;;15.94;96.18
67430;BME280;54298;52.076;5.264;2023-08-06T07:50:27;100506.0;;;15.83;96.42
67430;BME280;54298;52.076;5.264;2023-08-06T07:52:04;100512.0;;;15.81;96.32
67430;BME280;54298;52.076;5.264;2023-08-06T07:53:41;100513.0;;;16.03;95.83
67430;BME280;54298;52.076;5.264;2023-08-06T07:56:54;100518.0;;;16.03;96.01
67430;BME280;54298;52.076;5.264;2023-08-06T07:58:30;100512.0;;;15.84;95.39
67430;BME280;54298;52.076;5.264;2023-08-06T08:00:08;100520.0;;;15.93;94.75
67430;BME280;54298;52.076;5.264;2023-08-06T08:03:21;100515.0;;;15.75;94.81
67430;BME280;54298;52.076;5.264;2023-08-06T08:04:58;100522.0;;;15.67;94.34
67430;BME280;54298;52.076;5.264;2023-08-06T08:06:34;100530.0;;;15.66;94.17
67430;BME280;54298;52.076;5.264;2023-08-06T08:08:10;100525.0;;;15.73;93.67
67430;BME280;54298;52.076;5.264;2023-08-06T08:11:23;100530.0;;;15.89;93.33
67430;BME280;54298;52.076;5.264;2023-08-06T08:13:02;100534.0;;;15.85;93.33
67430;BME280;54298;52.076;5.264;2023-08-06T08:14:39;100535.0;;;15.71;92.68
67430;BME280;54298;52.076;5.264;2023-08-06T08:17:51;100541.0;;;15.7;92.75
67430;BME280;54298;52.076;5.264;2023-08-06T08:19:27;100549.0;;;15.49;92.79
67430;BME280;54298;52.076;5.264;2023-08-06T08:21:03;100548.0;;;15.53;93.35
67430;BME280;54298;52.076;5.264;2023-08-06T08:24:17;100552.0;;;15.43;93.32
67430;BME280;54298;52.076;5.264;2023-08-06T08:25:54;100555.0;;;15.58;93.74
67430;BME280;54298;52.076;5.264;2023-08-06T08:27:31;100552.0;;;15.64;92.93
67430;BME280;54298;52.076;5.264;2023-08-06T08:29:07;100557.0;;;15.55;93.47
67430;BME280;54298;52.076;5.264;2023-08-06T08:32:20;100557.0;;;15.62;92.86
67430;BME280;54298;52.076;5.264;2023-08-06T08:33:56;100556.0;;;15.7;92.91
67430;BME280;54298;52.076;5.264;2023-08-06T08:35:33;100552.0;;;15.54;93.52
67430;BME280;54298;52.076;5.264;2023-08-06T08:38:46;100555.0;;;15.6;93.81
67430;BME280;54298;52.076;5.264;2023-08-06T08:40:27;100557.0;;;15.5;94.47
67430;BME280;54298;52.076;5.264;2023-08-06T08:42:06;100559.0;;;15.63;94.4
67430;BME280;54298;52.076;5.264;2023-08-06T08:43:42;100551.0;;;15.65;94.55
67430;BME280;54298;52.076;5.264;2023-08-06T08:46:57;100548.0;;;15.7;94.22
67430;BME280;54298;52.076;5.264;2023-08-06T08:48:36;100553.0;;;15.74;94.34
67430;BME280;54298;52.076;5.264;2023-08-06T08:50:12;100556.0;;;15.67;94.71
67430;BME280;54298;52.076;5.264;2023-08-06T08:53:28;100560.0;;;15.63;94.95
67430;BME280;54298;52.076;5.264;2023-08-06T08:55:07;100563.0;;;15.8;94.53
67430;BME280;54298;52.076;5.264;2023-08-06T08:56:43;100562.0;;;15.69;95.33
67430;BME280;54298;52.076;5.264;2023-08-06T08:58:20;100556.0;;;15.88;94.33
67430;BME280;54298;52.076;5.264;2023-08-06T09:01:32;100564.0;;;15.77;94.48
67430;BME280;54298;52.076;5.264;2023-08-06T09:03:09;100560.0;;;15.9;94.51
67430;BME280;54298;52.076;5.264;2023-08-06T09:04:47;100565.0;;;15.9;94.68
67430;BME280;54298;52.076;5.264;2023-08-06T09:08:04;100567.0;;;16.03;94.45
67430;BME280;54298;52.076;5.264;2023-08-06T09:09:42;100569.0;;;15.98;94.69
67430;BME280;54298;52.076;5.264;2023-08-06T09:11:20;100574.0;;;16.09;94.87
67430;BME280;54298;52.076;5.264;2023-08-06T09:14:34;100576.0;;;16.2;94.57
67430;BME280;54298;52.076;5.264;2023-08-06T09:16:11;100580.0;;;16.25;94.9
67430;BME280;54298;52.076;5.264;2023-08-06T09:17:47;100576.0;;;16.25;94.98
67430;BME280;54298;52.076;5.264;2023-08-06T09:19:24;100578.0;;;16.16;95.74
67430;BME280;54298;52.076;5.264;2023-08-06T09:22:38;100573.0;;;16.28;95.03
67430;BME280;54298;52.076;5.264;2023-08-06T09:24:15;100582.0;;;16.15;95.66
67430;BME280;54298;52.076;5.264;2023-08-06T09:25:52;100587.0;;;16.34;95.17
67430;BME280;54298;52.076;5.264;2023-08-06T09:29:05;100586.0;;;16.36;95.45
67430;BME280;54298;52.076;5.264;2023-08-06T09:30:43;100591.0;;;16.34;95.38
67430;BME280;54298;52.076;5.264;2023-08-06T09:32:24;100587.0;;;16.37;95.26
67430;BME280;54298;52.076;5.264;2023-08-06T09:34:00;100589.0;;;16.25;95.82
67430;BME280;54298;52.076;5.264;2023-08-06T09:37:14;100595.0;;;16.29;95.74
67430;BME280;54298;52.076;5.264;2023-08-06T09:38:51;100598.0;;;16.39;95.45
67430;BME280;54298;52.076;5.264;2023-08-06T09:40:29;100596.0;;;16.28;95.96
67430;BME280;54298;52.076;5.264;2023-08-06T09:43:43;100601.0;;;16.29;96.23
67430;BME280;54298;52.076;5.264;2023-08-06T09:45:20;100607.0;;;16.4;95.03
67430;BME280;54298;52.076;5.264;2023-08-06T09:46:56;100606.0;;;16.2;96.01
67430;BME280;54298;52.076;5.264;2023-08-06T09:48:35;100611.0;;;16.11;96.62
67430;BME280;54298;52.076;5.264;2023-08-06T09:51:52;100619.0;;;16.3;95.67
67430;BME280;54298;52.076;5.264;2023-08-06T09:53:29;100616.0;;;16.13;96.3
67430;BME280;54298;52.076;5.264;2023-08-06T09:55:07;100619.0;;;15.94;96.69
67430;BME280;54298;52.076;5.264;2023-08-06T09:58:23;100617.0;;;15.63;97.87
67430;BME280;54298;52.076;5.264;2023-08-06T10:00:01;100621.0;;;16.02;96.96
67430;BME280;54298;52.076;5.264;2023-08-06T10:01:38;100621.0;;;16.2;96.82
67430;BME280;54298;52.076;5.264;2023-08-06T10:03:15;100619.0;;;16.3;96.41
67430;BME280;54298;52.076;5.264;2023-08-06T10:06:34;100623.0;;;16.25;96.89
67430;BME280;54298;52.076;5.264;2023-08-06T10:08:11;100622.0;;;16.29;96.4
67430;BME280;54298;52.076;5.264;2023-08-06T10:09:47;100617.0;;;16.45;96.05
67430;BME280;54298;52.076;5.264;2023-08-06T10:13:02;100617.0;;;16.43;96.37
67430;BME280;54298;52.076;5.264;2023-08-06T10:14:41;100625.0;;;16.56;96.19
67430;BME280;54298;52.076;5.264;2023-08-06T10:16:19;100622.0;;;16.47;96.06
67430;BME280;54298;52.076;5.264;2023-08-06T10:17:57;100628.0;;;16.54;95.57
67430;BME280;54298;52.076;5.264;2023-08-06T10:21:13;100631.0;;;16.61;95.98
67430;BME280;54298;52.076;5.264;2023-08-06T10:23:06;100632.0;;;16.65;95.66
67430;BME280;54298;52.076;5.264;2023-08-06T10:24:47;100637.0;;;16.91;94.36
67430;BME280;54298;52.076;5.264;2023-08-06T10:26:28;100637.0;;;16.77;93.67
67430;BME280;54298;52.076;5.264;2023-08-06T10:29:46;100637.0;;;16.8;93.47
67430;BME280;54298;52.076;5.264;2023-08-06T10:31:53;100637.0;;;16.84;93.43
67430;BME280;54298;52.076;5.264;2023-08-06T10:33:40;100641.0;;;17.02;93.38
67430;BME280;54298;52.076;5.264;2023-08-06T10:35:50;100642.0;;;16.59;93.36
67430;BME280;54298;52.076;5.264;2023-08-06T10:37:35;100648.0;;;16.87;92.99
67430;BME280;54298;52.076;5.264;2023-08-06T10:39:13;100647.0;;;17.0;92.29
67430;BME280;54298;52.076;5.264;2023-08-06T10:42:40;100652.0;;;17.04;92.43
67430;BME280;54298;52.076;5.264;2023-08-06T10:44:16;100651.0;;;16.64;92.56
67430;BME280;54298;52.076;5.264;2023-08-06T10:45:52;100647.0;;;16.66;93.06
67430;BME280;54298;52.076;5.264;2023-08-06T10:47:29;100652.0;;;16.54;93.21
67430;BME280;54298;52.076;5.264;2023-08-06T10:50:42;100656.0;;;16.71;92.33
67430;BME280;54298;52.076;5.264;2023-08-06T10:52:18;100657.0;;;16.95;92.72
67430;BME280;54298;52.076;5.264;2023-08-06T10:53:54;100659.0;;;17.02;92.9
67430;BME280;54298;52.076;5.264;2023-08-06T10:55:31;100655.0;;;17.11;92.47
67430;BME280;54298;52.076;5.264;2023-08-06T10:58:47;100661.0;;;16.88;92.46
67430;BME280;54298;52.076;5.264;2023-08-06T11:00:24;100661.0;;;17.16;93.18
67430;BME280;54298;52.076;5.264;2023-08-06T11:02:01;100663.0;;;16.95;91.76
67430;BME280;54298;52.076;5.264;2023-08-06T11:05:17;100661.0;;;17.07;91.26
67430;BME280;54298;52.076;5.264;2023-08-06T11:06:53;100667.0;;;17.2;90.88